sensor_id;sensor_type;location;lat;lon;timestamp;temperature;humidity
20670;DHT22;10494;50.868;4.180;2023-10-19T00:01:08;16.50;99.90
20670;DHT22;10494;50.868;4.180;2023-10-19T00:03:35;16.60;99.90
20670;DHT22;10494;50.868;4.180;2023-10-19T00:06:01;16.60;99.90
20670;DHT22;10494;50.868;4.180;2023-10-19T00:08:27;16.60;99.90
20670;DHT22;10494;50.868;4.180;2023-10-19T00:11:02;16.50;99.90
20670;DHT22;10494;50.868;4.180;2023-10-19T00:13:34;16.50;99.90
20670;DHT22;10494;50.868;4.180;2023-10-19T00:16:09;16.60;99.90
20670;DHT22;10494;50.868;4.180;2023-10-19T00:18:48;16.60;99.90
20670;DHT22;10494;50.868;4.180;2023-10-19T00:21:15;16.60;99.90
20670;DHT22;10494;50.868;4.180;2023-10-19T00:23:55;16.60;99.90
20670;DHT22;10494;50.868;4.180;2023-10-19T00:26:27;16.60;99.90
20670;DHT22;10494;50.868;4.180;2023-10-19T00:28:55;16.50;99.90
20670;DHT22;10494;50.868;4.180;2023-10-19T00:31:22;16.50;99.90
20670;DHT22;10494;50.868;4.180;2023-10-19T00:33:49;16.60;99.90
20670;DHT22;10494;50.868;4.180;2023-10-19T00:36:17;16.60;99.90
20670;DHT22;10494;50.868;4.180;2023-10-19T00:38:46;16.60;99.90
20670;DHT22;10494;50.868;4.180;2023-10-19T00:41:16;16.60;99.90
20670;DHT22;10494;50.868;4.180;2023-10-19T00:43:55;16.50;99.90
20670;DHT22;10494;50.868;4.180;2023-10-19T00:46:36;16.50;99.90
20670;DHT22;10494;50.868;4.180;2023-10-19T00:49:09;16.50;99.90
20670;DHT22;10494;50.868;4.180;2023-10-19T00:51:44;16.50;99.90
20670;DHT22;10494;50.868;4.180;2023-10-19T00:54:32;16.50;99.90
20670;DHT22;10494;50.868;4.180;2023-10-19T00:57:02;16.50;99.90
20670;DHT22;10494;50.868;4.180;2023-10-19T00:59:33;16.60;99.90
20670;DHT22;10494;50.868;4.180;2023-10-19T01:02:12;16.60;99.90
20670;DHT22;10494;50.868;4.180;2023-10-19T01:04:52;16.50;99.90
20670;DHT22;10494;50.868;4.180;2023-10-19T01:07:25;16.40;99.90
20670;DHT22;10494;50.868;4.180;2023-10-19T01:09:53;16.40;99.90
20670;DHT22;10494;50.868;4.180;2023-10-19T01:12:26;16.50;99.90
20670;DHT22;10494;50.868;4.180;2023-10-19T01:15:11;16.50;99.90
20670;DHT22;10494;50.868;4.180;2023-10-19T01:17:50;16.40;99.90
20670;DHT22;10494;50.868;4.180;2023-10-19T01:20:26;16.40;99.90
20670;DHT22;10494;50.868;4.180;2023-10-19T01:23:00;16.40;99.90
20670;DHT22;10494;50.868;4.180;2023-10-19T01:25:51;16.40;99.90
20670;DHT22;10494;50.868;4.180;2023-10-19T01:28:27;16.40;99.90
20670;DHT22;10494;50.868;4.180;2023-10-19T01:31:19;16.40;99.90
20670;DHT22;10494;50.868;4.180;2023-10-19T01:33:58;16.40;99.90
20670;DHT22;10494;50.868;4.180;2023-10-19T01:36:26;16.40;99.90
20670;DHT22;10494;50.868;4.180;2023-10-19T01:38:54;16.40;99.90
20670;DHT22;10494;50.868;4.180;2023-10-19T01:41:24;16.40;99.90
20670;DHT22;10494;50.868;4.180;2023-10-19T01:43:52;16.40;99.90
20670;DHT22;10494;50.868;4.180;2023-10-19T01:46:19;16.40;99.90
20670;DHT22;10494;50.868;4.180;2023-10-19T01:49:02;16.40;99.90
20670;DHT22;10494;50.868;4.180;2023-10-19T01:51:31;16.40;99.90
20670;DHT22;10494;50.868;4.180;2023-10-19T01:53:58;16.40;99.90
20670;DHT22;10494;50.868;4.180;2023-10-19T01:56:26;16.40;99.90
20670;DHT22;10494;50.868;4.180;2023-10-19T01:58:53;16.30;99.90
20670;DHT22;10494;50.868;4.180;2023-10-19T02:01:20;16.30;99.90
20670;DHT22;10494;50.868;4.180;2023-10-19T02:03:47;16.30;99.90
20670;DHT22;10494;50.868;4.180;2023-10-19T02:06:18;16.30;99.90
20670;DHT22;10494;50.868;4.180;2023-10-19T02:08:49;16.30;99.90
20670;DHT22;10494;50.868;4.180;2023-10-19T02:11:24;16.30;99.90
20670;DHT22;10494;50.868;4.180;2023-10-19T02:13:55;16.30;99.90
20670;DHT22;10494;50.868;4.180;2023-10-19T02:16:21;16.30;99.90
20670;DHT22;10494;50.868;4.180;2023-10-19T02:18:51;16.30;99.90
20670;DHT22;10494;50.868;4.180;2023-10-19T02:21:18;16.30;99.90
20670;DHT22;10494;50.868;4.180;2023-10-19T02:23:56;16.20;99.90
20670;DHT22;10494;50.868;4.180;2023-10-19T02:26:23;16.20;99.90
20670;DHT22;10494;50.868;4.180;2023-10-19T02:28:52;16.10;99.90
20670;DHT22;10494;50.868;4.180;2023-10-19T02:31:19;16.10;99.90
20670;DHT22;10494;50.868;4.180;2023-10-19T02:33:53;16.10;99.90
20670;DHT22;10494;50.868;4.180;2023-10-19T02:36:30;16.20;99.90
20670;DHT22;10494;50.868;4.180;2023-10-19T02:39:01;16.00;99.90
20670;DHT22;10494;50.868;4.180;2023-10-19T02:41:37;16.00;99.90
20670;DHT22;10494;50.868;4.180;2023-10-19T02:44:04;16.00;99.90
20670;DHT22;10494;50.868;4.180;2023-10-19T02:46:50;15.90;99.90
20670;DHT22;10494;50.868;4.180;2023-10-19T02:49:18;15.90;99.90
20670;DHT22;10494;50.868;4.180;2023-10-19T02:51:45;15.80;99.90
20670;DHT22;10494;50.868;4.180;2023-10-19T02:54:16;15.80;99.90
20670;DHT22;10494;50.868;4.180;2023-10-19T02:56:46;15.80;99.90
20670;DHT22;10494;50.868;4.180;2023-10-19T02:59:13;15.90;99.90
20670;DHT22;10494;50.868;4.180;2023-10-19T03:01:42;16.00;99.90
20670;DHT22;10494;50.868;4.180;2023-10-19T03:04:10;16.00;99.90
20670;DHT22;10494;50.868;4.180;2023-10-19T03:06:38;16.00;99.90
20670;DHT22;10494;50.868;4.180;2023-10-19T03:09:07;16.00;99.90
20670;DHT22;10494;50.868;4.180;2023-10-19T03:11:43;16.00;99.90
20670;DHT22;10494;50.868;4.180;2023-10-19T03:14:10;16.10;99.90
20670;DHT22;10494;50.868;4.180;2023-10-19T03:16:39;16.10;99.90
20670;DHT22;10494;50.868;4.180;2023-10-19T03:19:08;16.10;99.90
20670;DHT22;10494;50.868;4.180;2023-10-19T03:21:34;16.10;99.90
20670;DHT22;10494;50.868;4.180;2023-10-19T03:24:10;16.10;99.90
20670;DHT22;10494;50.868;4.180;2023-10-19T03:26:49;16.10;99.90
20670;DHT22;10494;50.868;4.180;2023-10-19T03:29:18;16.10;99.90
20670;DHT22;10494;50.868;4.180;2023-10-19T03:32:13;16.20;99.90
20670;DHT22;10494;50.868;4.180;2023-10-19T03:34:39;16.20;99.90
20670;DHT22;10494;50.868;4.180;2023-10-19T03:37:08;16.20;99.90
20670;DHT22;10494;50.868;4.180;2023-10-19T03:39:38;16.20;99.90
20670;DHT22;10494;50.868;4.180;2023-10-19T03:42:04;16.20;99.90
20670;DHT22;10494;50.868;4.180;2023-10-19T03:44:33;16.20;99.90
20670;DHT22;10494;50.868;4.180;2023-10-19T03:47:16;16.20;99.90
20670;DHT22;10494;50.868;4.180;2023-10-19T03:49:47;16.30;99.90
20670;DHT22;10494;50.868;4.180;2023-10-19T03:52:13;16.20;99.90
20670;DHT22;10494;50.868;4.180;2023-10-19T03:54:39;16.20;99.90
20670;DHT22;10494;50.868;4.180;2023-10-19T03:57:06;16.20;99.90
20670;DHT22;10494;50.868;4.180;2023-10-19T03:59:40;16.30;99.90
20670;DHT22;10494;50.868;4.180;2023-10-19T04:02:06;16.20;99.90
20670;DHT22;10494;50.868;4.180;2023-10-19T04:04:47;16.30;99.90
20670;DHT22;10494;50.868;4.180;2023-10-19T04:07:18;16.10;99.90
20670;DHT22;10494;50.868;4.180;2023-10-19T04:09:56;16.10;99.90
20670;DHT22;10494;50.868;4.180;2023-10-19T04:12:38;16.10;99.90
20670;DHT22;10494;50.868;4.180;2023-10-19T04:15:08;16.00;99.90
20670;DHT22;10494;50.868;4.180;2023-10-19T04:17:36;16.00;99.90
20670;DHT22;10494;50.868;4.180;2023-10-19T04:20:04;16.00;99.90
20670;DHT22;10494;50.868;4.180;2023-10-19T04:22:45;16.00;99.90
20670;DHT22;10494;50.868;4.180;2023-10-19T04:25:12;16.00;99.90
20670;DHT22;10494;50.868;4.180;2023-10-19T04:27:58;16.00;99.90
20670;DHT22;10494;50.868;4.180;2023-10-19T04:30:23;16.00;99.90
20670;DHT22;10494;50.868;4.180;2023-10-19T04:32:52;16.00;99.90
20670;DHT22;10494;50.868;4.180;2023-10-19T04:35:19;16.00;99.90
20670;DHT22;10494;50.868;4.180;2023-10-19T04:37:52;16.10;99.90
20670;DHT22;10494;50.868;4.180;2023-10-19T04:40:22;16.00;99.90
20670;DHT22;10494;50.868;4.180;2023-10-19T04:42:50;15.90;99.90
20670;DHT22;10494;50.868;4.180;2023-10-19T04:45:16;15.90;99.90
20670;DHT22;10494;50.868;4.180;2023-10-19T04:47:41;15.80;99.90
20670;DHT22;10494;50.868;4.180;2023-10-19T04:50:07;15.80;99.90
20670;DHT22;10494;50.868;4.180;2023-10-19T04:52:36;15.80;99.90
20670;DHT22;10494;50.868;4.180;2023-10-19T04:55:02;15.80;99.90
20670;DHT22;10494;50.868;4.180;2023-10-19T04:57:28;15.90;99.90
20670;DHT22;10494;50.868;4.180;2023-10-19T04:59:54;15.90;99.90
20670;DHT22;10494;50.868;4.180;2023-10-19T05:02:20;16.00;99.90
20670;DHT22;10494;50.868;4.180;2023-10-19T05:04:47;16.00;99.90
20670;DHT22;10494;50.868;4.180;2023-10-19T05:07:13;16.10;99.90
20670;DHT22;10494;50.868;4.180;2023-10-19T05:09:45;16.10;99.90
20670;DHT22;10494;50.868;4.180;2023-10-19T05:12:12;16.00;99.90
20670;DHT22;10494;50.868;4.180;2023-10-19T05:14:40;16.00;99.90
20670;DHT22;10494;50.868;4.180;2023-10-19T05:17:07;16.00;99.90
20670;DHT22;10494;50.868;4.180;2023-10-19T05:19:35;16.10;99.90
20670;DHT22;10494;50.868;4.180;2023-10-19T05:22:04;16.10;99.90
20670;DHT22;10494;50.868;4.180;2023-10-19T05:24:30;16.00;99.90
20670;DHT22;10494;50.868;4.180;2023-10-19T05:26:56;16.10;99.90
20670;DHT22;10494;50.868;4.180;2023-10-19T05:29:22;16.10;99.90
20670;DHT22;10494;50.868;4.180;2023-10-19T05:31:50;16.10;99.90
20670;DHT22;10494;50.868;4.180;2023-10-19T05:34:22;16.20;99.90
20670;DHT22;10494;50.868;4.180;2023-10-19T05:36:48;16.10;99.90
20670;DHT22;10494;50.868;4.180;2023-10-19T05:39:17;16.20;99.90
20670;DHT22;10494;50.868;4.180;2023-10-19T05:41:43;16.20;99.90
20670;DHT22;10494;50.868;4.180;2023-10-19T05:44:09;16.20;99.90
20670;DHT22;10494;50.868;4.180;2023-10-19T05:46:35;16.20;99.90
20670;DHT22;10494;50.868;4.180;2023-10-19T05:49:01;16.30;99.90
20670;DHT22;10494;50.868;4.180;2023-10-19T05:51:30;16.40;99.90
20670;DHT22;10494;50.868;4.180;2023-10-19T05:53:55;16.30;99.90
20670;DHT22;10494;50.868;4.180;2023-10-19T05:56:27;16.20;99.90
20670;DHT22;10494;50.868;4.180;2023-10-19T05:58:53;16.20;99.90
20670;DHT22;10494;50.868;4.180;2023-10-19T06:01:19;16.20;99.90
20670;DHT22;10494;50.868;4.180;2023-10-19T06:03:45;16.20;99.90
20670;DHT22;10494;50.868;4.180;2023-10-19T06:06:11;16.10;99.90
20670;DHT22;10494;50.868;4.180;2023-10-19T06:08:37;16.10;99.90
20670;DHT22;10494;50.868;4.180;2023-10-19T06:11:02;16.00;99.90
20670;DHT22;10494;50.868;4.180;2023-10-19T06:13:28;16.10;99.90
20670;DHT22;10494;50.868;4.180;2023-10-19T06:15:55;16.00;99.90
20670;DHT22;10494;50.868;4.180;2023-10-19T06:18:20;16.00;99.90
20670;DHT22;10494;50.868;4.180;2023-10-19T06:20:46;16.00;99.90
20670;DHT22;10494;50.868;4.180;2023-10-19T06:23:13;16.00;99.90
20670;DHT22;10494;50.868;4.180;2023-10-19T06:25:39;16.00;99.90
20670;DHT22;10494;50.868;4.180;2023-10-19T06:28:06;16.00;99.90
20670;DHT22;10494;50.868;4.180;2023-10-19T06:30:32;15.90;99.90
20670;DHT22;10494;50.868;4.180;2023-10-19T06:32:59;15.90;99.90
20670;DHT22;10494;50.868;4.180;2023-10-19T06:35:26;15.90;99.90
20670;DHT22;10494;50.868;4.180;2023-10-19T06:37:53;16.00;99.90
20670;DHT22;10494;50.868;4.180;2023-10-19T06:40:20;16.00;99.90
20670;DHT22;10494;50.868;4.180;2023-10-19T06:42:47;16.10;99.90
20670;DHT22;10494;50.868;4.180;2023-10-19T06:45:14;16.00;99.90
20670;DHT22;10494;50.868;4.180;2023-10-19T06:47:41;15.90;99.90
20670;DHT22;10494;50.868;4.180;2023-10-19T06:50:08;15.80;99.90
20670;DHT22;10494;50.868;4.180;2023-10-19T06:52:36;15.70;99.90
20670;DHT22;10494;50.868;4.180;2023-10-19T06:55:07;15.80;99.90
20670;DHT22;10494;50.868;4.180;2023-10-19T06:57:54;15.80;99.90
20670;DHT22;10494;50.868;4.180;2023-10-19T07:00:23;15.80;99.90
20670;DHT22;10494;50.868;4.180;2023-10-19T07:02:51;15.80;99.90
20670;DHT22;10494;50.868;4.180;2023-10-19T07:05:18;15.80;99.90
20670;DHT22;10494;50.868;4.180;2023-10-19T07:07:46;15.90;99.90
20670;DHT22;10494;50.868;4.180;2023-10-19T07:10:12;15.90;99.90
20670;DHT22;10494;50.868;4.180;2023-10-19T07:12:46;16.00;99.90
20670;DHT22;10494;50.868;4.180;2023-10-19T07:15:12;15.90;99.90
20670;DHT22;10494;50.868;4.180;2023-10-19T07:17:41;15.90;99.90
20670;DHT22;10494;50.868;4.180;2023-10-19T07:20:07;15.90;99.90
20670;DHT22;10494;50.868;4.180;2023-10-19T07:22:35;15.90;99.90
20670;DHT22;10494;50.868;4.180;2023-10-19T07:25:05;16.00;99.90
20670;DHT22;10494;50.868;4.180;2023-10-19T07:27:32;16.10;99.90
20670;DHT22;10494;50.868;4.180;2023-10-19T07:29:59;16.00;99.90
20670;DHT22;10494;50.868;4.180;2023-10-19T07:32:25;16.10;99.90
20670;DHT22;10494;50.868;4.180;2023-10-19T07:34:51;16.10;99.90
20670;DHT22;10494;50.868;4.180;2023-10-19T07:37:16;16.00;99.90
20670;DHT22;10494;50.868;4.180;2023-10-19T07:39:46;16.10;99.90
20670;DHT22;10494;50.868;4.180;2023-10-19T07:42:12;16.10;99.90
20670;DHT22;10494;50.868;4.180;2023-10-19T07:44:37;16.10;99.90
20670;DHT22;10494;50.868;4.180;2023-10-19T07:47:03;16.10;99.90
20670;DHT22;10494;50.868;4.180;2023-10-19T07:49:29;16.10;99.90
20670;DHT22;10494;50.868;4.180;2023-10-19T07:51:56;16.10;99.90
20670;DHT22;10494;50.868;4.180;2023-10-19T07:54:22;16.10;99.90
20670;DHT22;10494;50.868;4.180;2023-10-19T07:56:48;16.30;99.90
20670;DHT22;10494;50.868;4.180;2023-10-19T07:59:15;16.20;99.90
20670;DHT22;10494;50.868;4.180;2023-10-19T08:01:42;16.20;99.90
20670;DHT22;10494;50.868;4.180;2023-10-19T08:04:08;16.30;99.90
20670;DHT22;10494;50.868;4.180;2023-10-19T08:06:33;16.30;99.90
20670;DHT22;10494;50.868;4.180;2023-10-19T08:08:59;16.40;99.90
20670;DHT22;10494;50.868;4.180;2023-10-19T08:11:25;16.50;99.90
20670;DHT22;10494;50.868;4.180;2023-10-19T08:13:51;16.60;99.90
20670;DHT22;10494;50.868;4.180;2023-10-19T08:16:16;16.60;99.90
20670;DHT22;10494;50.868;4.180;2023-10-19T08:18:43;16.60;99.90
20670;DHT22;10494;50.868;4.180;2023-10-19T08:21:09;16.60;99.90
20670;DHT22;10494;50.868;4.180;2023-10-19T08:23:34;16.90;99.90
20670;DHT22;10494;50.868;4.180;2023-10-19T08:26:00;17.00;99.90
20670;DHT22;10494;50.868;4.180;2023-10-19T08:28:26;17.10;99.90
20670;DHT22;10494;50.868;4.180;2023-10-19T08:30:52;17.30;99.90
20670;DHT22;10494;50.868;4.180;2023-10-19T08:33:26;17.50;99.90
20670;DHT22;10494;50.868;4.180;2023-10-19T08:35:53;17.60;99.90
20670;DHT22;10494;50.868;4.180;2023-10-19T08:38:19;17.50;99.90
20670;DHT22;10494;50.868;4.180;2023-10-19T08:40:47;17.50;99.90
20670;DHT22;10494;50.868;4.180;2023-10-19T08:43:14;17.50;99.90
20670;DHT22;10494;50.868;4.180;2023-10-19T08:45:43;17.70;99.90
20670;DHT22;10494;50.868;4.180;2023-10-19T08:48:10;17.70;99.90
20670;DHT22;10494;50.868;4.180;2023-10-19T08:50:36;17.60;99.90
20670;DHT22;10494;50.868;4.180;2023-10-19T08:53:08;17.60;99.90
20670;DHT22;10494;50.868;4.180;2023-10-19T08:55:34;17.40;99.90
20670;DHT22;10494;50.868;4.180;2023-10-19T08:58:00;17.30;99.90
20670;DHT22;10494;50.868;4.180;2023-10-19T09:00:26;17.30;99.90
20670;DHT22;10494;50.868;4.180;2023-10-19T09:02:53;17.30;99.90
20670;DHT22;10494;50.868;4.180;2023-10-19T09:05:20;17.20;99.90
20670;DHT22;10494;50.868;4.180;2023-10-19T09:07:57;17.20;99.90
20670;DHT22;10494;50.868;4.180;2023-10-19T09:10:26;17.30;99.90
20670;DHT22;10494;50.868;4.180;2023-10-19T09:13:03;17.30;99.90
20670;DHT22;10494;50.868;4.180;2023-10-19T09:15:29;17.30;99.90
20670;DHT22;10494;50.868;4.180;2023-10-19T09:17:58;17.30;99.90
20670;DHT22;10494;50.868;4.180;2023-10-19T09:20:24;17.30;99.90
20670;DHT22;10494;50.868;4.180;2023-10-19T09:22:56;17.30;99.90
20670;DHT22;10494;50.868;4.180;2023-10-19T09:25:23;17.40;99.90
20670;DHT22;10494;50.868;4.180;2023-10-19T09:27:49;17.30;99.90
20670;DHT22;10494;50.868;4.180;2023-10-19T09:30:15;17.30;99.90
20670;DHT22;10494;50.868;4.180;2023-10-19T09:32:46;17.40;99.90
20670;DHT22;10494;50.868;4.180;2023-10-19T09:35:14;17.30;99.90
20670;DHT22;10494;50.868;4.180;2023-10-19T09:37:42;17.30;99.90
20670;DHT22;10494;50.868;4.180;2023-10-19T09:40:09;17.30;99.90
20670;DHT22;10494;50.868;4.180;2023-10-19T09:42:43;17.40;99.90
20670;DHT22;10494;50.868;4.180;2023-10-19T09:45:19;17.40;99.90
20670;DHT22;10494;50.868;4.180;2023-10-19T09:47:50;17.40;99.90
20670;DHT22;10494;50.868;4.180;2023-10-19T09:50:16;17.50;99.90
20670;DHT22;10494;50.868;4.180;2023-10-19T09:52:42;17.50;99.90
20670;DHT22;10494;50.868;4.180;2023-10-19T09:55:19;17.70;99.90
20670;DHT22;10494;50.868;4.180;2023-10-19T09:58:12;17.90;99.90
20670;DHT22;10494;50.868;4.180;2023-10-19T10:00:48;18.20;99.90
20670;DHT22;10494;50.868;4.180;2023-10-19T10:03:55;18.60;99.90
20670;DHT22;10494;50.868;4.180;2023-10-19T10:09:21;18.70;99.90
20670;DHT22;10494;50.868;4.180;2023-10-19T10:11:49;18.70;99.90
20670;DHT22;10494;50.868;4.180;2023-10-19T10:14:26;18.50;99.90
20670;DHT22;10494;50.868;4.180;2023-10-19T10:17:01;18.30;99.90
20670;DHT22;10494;50.868;4.180;2023-10-19T10:19:27;18.20;99.90
20670;DHT22;10494;50.868;4.180;2023-10-19T10:22:09;18.20;99.90
20670;DHT22;10494;50.868;4.180;2023-10-19T10:24:43;18.20;99.90
20670;DHT22;10494;50.868;4.180;2023-10-19T10:27:09;18.10;99.90
20670;DHT22;10494;50.868;4.180;2023-10-19T10:29:36;18.20;99.90
20670;DHT22;10494;50.868;4.180;2023-10-19T10:32:02;18.30;99.90
20670;DHT22;10494;50.868;4.180;2023-10-19T10:37:04;18.30;99.90
20670;DHT22;10494;50.868;4.180;2023-10-19T10:39:34;18.30;99.90
20670;DHT22;10494;50.868;4.180;2023-10-19T10:42:07;18.30;99.90
20670;DHT22;10494;50.868;4.180;2023-10-19T10:44:41;18.20;99.90
20670;DHT22;10494;50.868;4.180;2023-10-19T10:47:20;18.20;99.90
20670;DHT22;10494;50.868;4.180;2023-10-19T10:49:53;18.20;99.90
20670;DHT22;10494;50.868;4.180;2023-10-19T10:52:35;18.10;99.90
20670;DHT22;10494;50.868;4.180;2023-10-19T10:55:11;18.10;99.90
20670;DHT22;10494;50.868;4.180;2023-10-19T10:57:39;18.10;99.90
20670;DHT22;10494;50.868;4.180;2023-10-19T11:02:44;18.10;99.90
20670;DHT22;10494;50.868;4.180;2023-10-19T11:05:15;18.00;99.90
20670;DHT22;10494;50.868;4.180;2023-10-19T11:10:29;17.80;99.90
20670;DHT22;10494;50.868;4.180;2023-10-19T11:15:28;17.90;99.90
20670;DHT22;10494;50.868;4.180;2023-10-19T11:17:53;18.00;99.90
20670;DHT22;10494;50.868;4.180;2023-10-19T11:20:23;18.10;99.90
20670;DHT22;10494;50.868;4.180;2023-10-19T11:22:51;18.20;99.90
20670;DHT22;10494;50.868;4.180;2023-10-19T11:25:19;18.30;99.90
20670;DHT22;10494;50.868;4.180;2023-10-19T11:27:46;18.30;99.90
20670;DHT22;10494;50.868;4.180;2023-10-19T11:30:13;18.30;99.90
20670;DHT22;10494;50.868;4.180;2023-10-19T11:32:39;18.30;99.90
20670;DHT22;10494;50.868;4.180;2023-10-19T11:35:06;18.30;99.90
20670;DHT22;10494;50.868;4.180;2023-10-19T11:37:55;18.20;99.90
20670;DHT22;10494;50.868;4.180;2023-10-19T11:40:22;18.10;99.90
20670;DHT22;10494;50.868;4.180;2023-10-19T11:42:48;18.10;99.90
20670;DHT22;10494;50.868;4.180;2023-10-19T11:45:14;18.20;99.90
20670;DHT22;10494;50.868;4.180;2023-10-19T11:47:42;18.20;99.90
20670;DHT22;10494;50.868;4.180;2023-10-19T11:50:08;18.30;99.90
20670;DHT22;10494;50.868;4.180;2023-10-19T11:52:37;18.40;99.90
20670;DHT22;10494;50.868;4.180;2023-10-19T11:55:03;18.50;99.90
20670;DHT22;10494;50.868;4.180;2023-10-19T11:57:31;18.50;99.90
20670;DHT22;10494;50.868;4.180;2023-10-19T11:59:56;18.40;99.90
20670;DHT22;10494;50.868;4.180;2023-10-19T12:02:24;18.40;99.90
20670;DHT22;10494;50.868;4.180;2023-10-19T12:04:51;18.40;99.90
20670;DHT22;10494;50.868;4.180;2023-10-19T12:07:16;18.30;99.90
20670;DHT22;10494;50.868;4.180;2023-10-19T12:09:42;18.10;99.90
20670;DHT22;10494;50.868;4.180;2023-10-19T12:12:10;18.10;99.90
20670;DHT22;10494;50.868;4.180;2023-10-19T12:14:39;18.10;99.90
20670;DHT22;10494;50.868;4.180;2023-10-19T12:17:04;18.10;99.90
20670;DHT22;10494;50.868;4.180;2023-10-19T12:19:33;18.10;99.90
20670;DHT22;10494;50.868;4.180;2023-10-19T12:22:00;18.10;99.90
20670;DHT22;10494;50.868;4.180;2023-10-19T12:24:28;18.10;99.90
20670;DHT22;10494;50.868;4.180;2023-10-19T12:26:54;18.10;99.90
20670;DHT22;10494;50.868;4.180;2023-10-19T12:29:20;18.10;99.90
20670;DHT22;10494;50.868;4.180;2023-10-19T12:31:49;18.10;99.90
20670;DHT22;10494;50.868;4.180;2023-10-19T12:34:15;18.20;99.90
20670;DHT22;10494;50.868;4.180;2023-10-19T12:36:42;18.30;99.90
20670;DHT22;10494;50.868;4.180;2023-10-19T12:39:10;18.40;99.90
20670;DHT22;10494;50.868;4.180;2023-10-19T12:41:41;18.30;99.90
20670;DHT22;10494;50.868;4.180;2023-10-19T12:44:07;18.20;99.90
20670;DHT22;10494;50.868;4.180;2023-10-19T12:46:37;18.30;99.90
20670;DHT22;10494;50.868;4.180;2023-10-19T12:49:06;18.50;99.90
20670;DHT22;10494;50.868;4.180;2023-10-19T12:51:39;18.60;99.90
20670;DHT22;10494;50.868;4.180;2023-10-19T12:54:07;18.80;99.90
20670;DHT22;10494;50.868;4.180;2023-10-19T12:56:35;19.00;99.90
20670;DHT22;10494;50.868;4.180;2023-10-19T12:59:01;19.10;99.90
20670;DHT22;10494;50.868;4.180;2023-10-19T13:01:27;19.10;99.90
20670;DHT22;10494;50.868;4.180;2023-10-19T13:03:53;19.30;99.90
20670;DHT22;10494;50.868;4.180;2023-10-19T13:06:19;19.20;99.90
20670;DHT22;10494;50.868;4.180;2023-10-19T13:08:45;19.10;99.90
20670;DHT22;10494;50.868;4.180;2023-10-19T13:11:11;19.20;99.90
20670;DHT22;10494;50.868;4.180;2023-10-19T13:13:40;19.20;99.90
20670;DHT22;10494;50.868;4.180;2023-10-19T13:16:05;19.20;99.90
20670;DHT22;10494;50.868;4.180;2023-10-19T13:18:32;19.30;99.90
20670;DHT22;10494;50.868;4.180;2023-10-19T13:21:00;19.40;99.90
20670;DHT22;10494;50.868;4.180;2023-10-19T13:23:32;19.50;99.90
20670;DHT22;10494;50.868;4.180;2023-10-19T13:26:02;19.50;99.90
20670;DHT22;10494;50.868;4.180;2023-10-19T13:28:33;19.50;99.90
20670;DHT22;10494;50.868;4.180;2023-10-19T13:30:59;19.40;99.90
20670;DHT22;10494;50.868;4.180;2023-10-19T13:33:24;19.50;99.90
20670;DHT22;10494;50.868;4.180;2023-10-19T13:35:50;19.50;99.90
20670;DHT22;10494;50.868;4.180;2023-10-19T13:38:17;19.50;99.90
20670;DHT22;10494;50.868;4.180;2023-10-19T13:40:45;19.70;99.90
20670;DHT22;10494;50.868;4.180;2023-10-19T13:43:12;19.70;99.90
20670;DHT22;10494;50.868;4.180;2023-10-19T13:45:42;19.80;99.90
20670;DHT22;10494;50.868;4.180;2023-10-19T13:48:08;19.70;99.90
20670;DHT22;10494;50.868;4.180;2023-10-19T13:50:41;19.60;99.90
20670;DHT22;10494;50.868;4.180;2023-10-19T13:53:08;19.70;99.90
20670;DHT22;10494;50.868;4.180;2023-10-19T13:55:35;19.60;99.90
20670;DHT22;10494;50.868;4.180;2023-10-19T13:58:02;19.60;99.90
20670;DHT22;10494;50.868;4.180;2023-10-19T14:00:28;19.60;99.90
20670;DHT22;10494;50.868;4.180;2023-10-19T14:02:53;19.70;99.90
20670;DHT22;10494;50.868;4.180;2023-10-19T14:05:19;19.70;99.90
20670;DHT22;10494;50.868;4.180;2023-10-19T14:07:48;19.80;99.90
20670;DHT22;10494;50.868;4.180;2023-10-19T14:10:14;19.80;99.90
20670;DHT22;10494;50.868;4.180;2023-10-19T14:12:41;19.90;99.90
20670;DHT22;10494;50.868;4.180;2023-10-19T14:15:12;19.70;99.90
20670;DHT22;10494;50.868;4.180;2023-10-19T14:17:37;19.50;99.90
20670;DHT22;10494;50.868;4.180;2023-10-19T14:20:04;19.50;99.90
20670;DHT22;10494;50.868;4.180;2023-10-19T14:22:31;19.40;99.90
20670;DHT22;10494;50.868;4.180;2023-10-19T14:25:00;19.50;99.90
20670;DHT22;10494;50.868;4.180;2023-10-19T14:27:26;19.50;99.90
20670;DHT22;10494;50.868;4.180;2023-10-19T14:29:52;19.60;99.90
20670;DHT22;10494;50.868;4.180;2023-10-19T14:32:17;19.60;99.90
20670;DHT22;10494;50.868;4.180;2023-10-19T14:34:43;19.60;99.90
20670;DHT22;10494;50.868;4.180;2023-10-19T14:37:09;19.70;99.90
20670;DHT22;10494;50.868;4.180;2023-10-19T14:39:34;19.70;99.90
20670;DHT22;10494;50.868;4.180;2023-10-19T14:42:00;19.70;99.90
20670;DHT22;10494;50.868;4.180;2023-10-19T14:44:26;19.70;99.90
20670;DHT22;10494;50.868;4.180;2023-10-19T14:46:53;19.70;99.90
20670;DHT22;10494;50.868;4.180;2023-10-19T14:49:18;19.80;99.90
20670;DHT22;10494;50.868;4.180;2023-10-19T14:51:44;19.70;99.90
20670;DHT22;10494;50.868;4.180;2023-10-19T14:54:10;19.60;99.90
20670;DHT22;10494;50.868;4.180;2023-10-19T14:56:36;19.50;99.90
20670;DHT22;10494;50.868;4.180;2023-10-19T14:59:02;19.40;99.90
20670;DHT22;10494;50.868;4.180;2023-10-19T15:01:30;19.40;99.90
20670;DHT22;10494;50.868;4.180;2023-10-19T15:03:56;19.40;99.90
20670;DHT22;10494;50.868;4.180;2023-10-19T15:06:22;19.40;99.90
20670;DHT22;10494;50.868;4.180;2023-10-19T15:08:48;19.40;99.90
20670;DHT22;10494;50.868;4.180;2023-10-19T15:11:17;19.50;99.90
20670;DHT22;10494;50.868;4.180;2023-10-19T15:13:44;19.40;99.90
20670;DHT22;10494;50.868;4.180;2023-10-19T15:16:11;19.40;99.90
20670;DHT22;10494;50.868;4.180;2023-10-19T15:18:37;19.40;99.90
20670;DHT22;10494;50.868;4.180;2023-10-19T15:21:08;19.40;99.90
20670;DHT22;10494;50.868;4.180;2023-10-19T15:23:34;19.40;99.90
20670;DHT22;10494;50.868;4.180;2023-10-19T15:25:59;19.30;99.90
20670;DHT22;10494;50.868;4.180;2023-10-19T15:28:25;19.30;99.90
20670;DHT22;10494;50.868;4.180;2023-10-19T15:30:51;19.30;99.90
20670;DHT22;10494;50.868;4.180;2023-10-19T15:33:16;19.10;99.90
20670;DHT22;10494;50.868;4.180;2023-10-19T15:35:46;19.00;99.90
20670;DHT22;10494;50.868;4.180;2023-10-19T15:38:12;18.90;99.90
20670;DHT22;10494;50.868;4.180;2023-10-19T15:40:38;19.00;99.90
20670;DHT22;10494;50.868;4.180;2023-10-19T15:43:05;19.00;99.90
20670;DHT22;10494;50.868;4.180;2023-10-19T15:45:31;18.90;99.90
20670;DHT22;10494;50.868;4.180;2023-10-19T15:48:05;18.80;99.90
20670;DHT22;10494;50.868;4.180;2023-10-19T15:50:31;18.80;99.90
20670;DHT22;10494;50.868;4.180;2023-10-19T15:53:00;18.80;99.90
20670;DHT22;10494;50.868;4.180;2023-10-19T15:55:28;18.70;99.90